Time;durP1;ratioP1;P1;durP2;ratioP2;P2;SDS_P1;SDS_P2;PMS_P1;PMS_P2;Temp;Humidity;BMP_temperature;BMP_pressure;BME280_temperature;BME280_humidity;BME280_pressure;Samples;Min_cycle;Max_cycle;Signal;HPM_P1;HPM_P2
2021/03/08 00:01:00;;;;;;;38.95;22.05;;;4.80;94.10;;;;;;4939070;29;20058;-77
2021/03/08 00:03:28;;;;;;;37.00;22.42;;;4.50;96.10;;;;;;4969016;28;20078;-77
2021/03/08 00:05:54;;;;;;;34.75;23.10;;;4.40;97.80;;;;;;4952382;28;20504;-80
2021/03/08 00:08:20;;;;;;;38.17;23.65;;;4.60;97.10;;;;;;4966775;28;20034;-75
2021/03/08 00:10:45;;;;;;;39.10;22.85;;;4.20;97.50;;;;;;4969347;28;20023;-77
2021/03/08 00:13:12;;;;;;;39.35;21.23;;;4.30;98.10;;;;;;4971937;28;20035;-74
2021/03/08 00:15:37;;;;;;;37.65;23.08;;;4.00;99.10;;;;;;4971740;28;20023;-75
2021/03/08 00:18:04;;;;;;;41.60;23.17;;;4.00;99.60;;;;;;4951589;28;20046;-77
2021/03/08 00:20:30;;;;;;;39.03;22.33;;;4.20;99.20;;;;;;4956738;28;20035;-77
2021/03/08 00:22:57;;;;;;;34.35;21.40;;;4.10;98.50;;;;;;4963923;28;20041;-78
2021/03/08 00:25:25;;;;;;;39.75;20.90;;;4.00;99.30;;;;;;4952295;29;20440;-79
2021/03/08 00:27:51;;;;;;;39.30;21.70;;;4.50;99.00;;;;;;4960309;28;20026;-77
2021/03/08 00:30:18;;;;;;;37.83;21.42;;;5.00;97.80;;;;;;4968971;28;20034;-77
2021/03/08 00:32:44;;;;;;;35.75;21.10;;;5.20;96.80;;;;;;4971340;28;20026;-76
2021/03/08 00:35:11;;;;;;;36.50;20.25;;;5.10;96.40;;;;;;4972060;28;20388;-75
2021/03/08 00:37:37;;;;;;;36.88;22.85;;;5.20;96.40;;;;;;4974291;28;20629;-77
2021/03/08 00:40:09;;;;;;;36.53;21.13;;;5.30;96.30;;;;;;4963155;28;20034;-76
2021/03/08 00:42:35;;;;;;;36.95;21.08;;;5.30;95.90;;;;;;4954770;29;20035;-74
2021/03/08 00:45:05;;;;;;;33.55;19.60;;;5.20;95.90;;;;;;4956254;29;20074;-79
2021/03/08 00:47:30;;;;;;;32.90;19.17;;;5.20;96.40;;;;;;4955326;29;20023;-76
2021/03/08 00:49:56;;;;;;;31.23;20.02;;;5.30;95.90;;;;;;4960970;28;20105;-75
2021/03/08 00:52:22;;;;;;;38.35;23.25;;;5.20;96.30;;;;;;4971987;28;20472;-75
2021/03/08 00:54:47;;;;;;;35.95;22.20;;;5.20;96.60;;;;;;4955295;28;20030;-78
2021/03/08 00:57:13;;;;;;;47.83;25.23;;;5.20;96.90;;;;;;4955377;29;20035;-76
2021/03/08 00:59:39;;;;;;;50.38;28.45;;;5.10;97.20;;;;;;4954679;28;20027;-77
2021/03/08 01:02:06;;;;;;;52.30;28.38;;;5.20;97.40;;;;;;4955711;29;20034;-76
2021/03/08 01:04:32;;;;;;;50.28;29.70;;;5.00;98.00;;;;;;4953865;29;20047;-76
2021/03/08 01:06:58;;;;;;;61.72;30.27;;;4.90;98.20;;;;;;4955892;29;20081;-76
2021/03/08 01:09:23;;;;;;;58.40;29.42;;;4.80;98.40;;;;;;4969614;28;20058;-79
2021/03/08 01:11:50;;;;;;;50.45;28.17;;;4.90;98.60;;;;;;4974103;28;20069;-77
2021/03/08 01:14:16;;;;;;;49.42;28.63;;;4.80;98.50;;;;;;4974991;28;20436;-74
2021/03/08 01:16:41;;;;;;;48.13;27.52;;;4.90;98.30;;;;;;4972088;28;20492;-78
2021/03/08 01:19:07;;;;;;;54.72;26.15;;;4.80;98.50;;;;;;4973215;28;20035;-77
2021/03/08 01:21:33;;;;;;;48.17;26.50;;;4.80;98.40;;;;;;4974915;28;20034;-78
2021/03/08 01:23:59;;;;;;;53.58;26.80;;;4.70;98.70;;;;;;4944977;28;20031;-74
2021/03/08 01:26:25;;;;;;;55.35;29.17;;;4.80;98.80;;;;;;4955122;29;20031;-76
2021/03/08 01:28:51;;;;;;;51.70;28.45;;;4.70;99.00;;;;;;4968343;28;20031;-76
2021/03/08 01:31:16;;;;;;;50.72;28.35;;;4.60;99.20;;;;;;4962910;28;20047;-76
2021/03/08 01:33:42;;;;;;;48.20;28.33;;;4.50;99.90;;;;;;4955490;29;20039;-77
2021/03/08 01:36:08;;;;;;;46.22;26.85;;;4.50;99.90;;;;;;4955241;29;20042;-76
2021/03/08 01:38:34;;;;;;;44.08;27.40;;;4.50;99.90;;;;;;4962770;28;20027;-77
2021/03/08 01:41:00;;;;;;;45.67;26.02;;;4.50;99.60;;;;;;4953605;28;20085;-76
2021/03/08 01:43:26;;;;;;;41.08;25.63;;;4.60;99.90;;;;;;4974006;28;20081;-79
2021/03/08 01:45:52;;;;;;;39.92;24.80;;;4.70;99.90;;;;;;4966254;28;20066;-77
2021/03/08 01:48:18;;;;;;;35.75;23.27;;;4.80;99.90;;;;;;4954686;28;20090;-77
2021/03/08 01:50:46;;;;;;;36.38;22.63;;;4.80;99.80;;;;;;4958687;28;20027;-77
2021/03/08 01:53:16;;;;;;;42.30;23.67;;;4.70;99.60;;;;;;4971182;28;20023;-79
2021/03/08 01:55:42;;;;;;;42.55;22.73;;;4.40;99.90;;;;;;4974246;28;20110;-77
2021/03/08 01:58:08;;;;;;;39.10;22.60;;;4.40;99.90;;;;;;4974364;28;20049;-78
2021/03/08 02:00:36;;;;;;;39.28;22.70;;;4.40;99.90;;;;;;4955223;28;20074;-79
2021/03/08 02:03:03;;;;;;;43.67;24.45;;;4.30;99.90;;;;;;4973407;28;20069;-78
2021/03/08 02:05:35;;;;;;;45.55;25.17;;;4.30;99.90;;;;;;4971314;28;20027;-77
2021/03/08 02:08:03;;;;;;;40.35;22.63;;;4.20;99.90;;;;;;4966442;28;20388;-79
2021/03/08 02:10:30;;;;;;;42.05;24.23;;;4.40;99.90;;;;;;4952226;28;20035;-78
2021/03/08 02:13:14;;;;;;;43.20;24.75;;;4.00;99.90;;;;;;4954722;29;20023;-78
2021/03/08 02:15:53;;;;;;;43.03;23.40;;;4.30;99.90;;;;;;4950262;29;20113;-76
2021/03/08 02:18:43;;;;;;;40.92;24.15;;;4.20;99.90;;;;;;4955082;29;20135;-79
2021/03/08 02:21:24;;;;;;;44.55;22.75;;;4.00;99.90;;;;;;4971360;28;20041;-78
2021/03/08 02:24:24;;;;;;;40.58;22.58;;;4.00;99.90;;;;;;4971315;28;20045;-77
2021/03/08 02:27:03;;;;;;;34.00;18.58;;;4.00;99.90;;;;;;4972804;28;20023;-77
2021/03/08 02:29:44;;;;;;;26.50;17.38;;;4.10;99.90;;;;;;4952279;29;20037;-78
2021/03/08 02:32:12;;;;;;;34.00;17.33;;;4.10;99.90;;;;;;4953017;28;20015;-78
2021/03/08 02:35:01;;;;;;;26.55;16.60;;;4.10;99.90;;;;;;4954524;29;20138;-77
2021/03/08 02:37:30;;;;;;;30.17;17.75;;;4.00;99.90;;;;;;4953620;28;20043;-75
2021/03/08 02:40:10;;;;;;;24.95;16.73;;;4.00;99.90;;;;;;4950105;28;20031;-76
2021/03/08 02:42:40;;;;;;;27.65;16.58;;;4.00;99.90;;;;;;4954324;29;20022;-74
2021/03/08 02:45:09;;;;;;;30.25;17.05;;;3.90;99.90;;;;;;4937568;29;20079;-75
2021/03/08 02:47:41;;;;;;;28.80;17.63;;;3.80;99.90;;;;;;4934456;29;20031;-76
2021/03/08 02:50:08;;;;;;;30.17;17.33;;;3.70;99.90;;;;;;4938775;29;20543;-76
2021/03/08 02:52:36;;;;;;;28.92;17.00;;;3.70;99.90;;;;;;4951513;29;20123;-77
2021/03/08 02:55:05;;;;;;;27.45;16.40;;;3.90;99.90;;;;;;4953609;29;20031;-76
2021/03/08 02:57:37;;;;;;;24.90;15.95;;;3.90;99.90;;;;;;4954170;29;20875;-76
2021/03/08 03:00:10;;;;;;;26.70;16.30;;;3.90;99.90;;;;;;4951464;28;20087;-77
2021/03/08 03:02:39;;;;;;;29.42;16.83;;;3.80;99.90;;;;;;4952696;29;20027;-77
2021/03/08 03:05:10;;;;;;;28.77;17.10;;;3.70;99.90;;;;;;4951922;29;20035;-77
2021/03/08 03:07:39;;;;;;;25.85;15.55;;;3.60;99.90;;;;;;4934197;29;20038;-77
2021/03/08 03:10:06;;;;;;;27.73;16.42;;;3.40;99.90;;;;;;4951741;29;20027;-76
2021/03/08 03:12:34;;;;;;;26.58;15.68;;;3.60;99.90;;;;;;4953823;29;20024;-77
2021/03/08 03:15:01;;;;;;;26.77;15.50;;;3.20;99.90;;;;;;4950231;29;20046;-76
2021/03/08 03:17:29;;;;;;;25.58;15.63;;;3.30;99.90;;;;;;4951508;29;20488;-76
2021/03/08 03:19:57;;;;;;;23.55;14.15;;;3.50;99.90;;;;;;4933232;29;20031;-75
2021/03/08 03:22:25;;;;;;;27.25;15.38;;;3.30;99.90;;;;;;4933680;29;20053;-75
2021/03/08 03:24:57;;;;;;;24.90;15.45;;;3.30;99.90;;;;;;4952887;29;20075;-77
2021/03/08 03:27:24;;;;;;;23.58;15.88;;;3.70;99.90;;;;;;4949749;29;20023;-76
2021/03/08 03:29:51;;;;;;;24.25;15.23;;;3.60;99.90;;;;;;4932690;29;20036;-76
2021/03/08 03:32:19;;;;;;;26.02;15.68;;;3.60;99.90;;;;;;4933564;29;20031;-78
2021/03/08 03:34:46;;;;;;;25.20;14.93;;;3.60;99.90;;;;;;4935121;29;20047;-75
2021/03/08 03:37:17;;;;;;;21.98;14.13;;;3.60;99.90;;;;;;4932901;29;20031;-75
2021/03/08 03:39:43;;;;;;;27.90;14.18;;;3.80;99.90;;;;;;4942411;29;20111;-77
2021/03/08 03:42:09;;;;;;;26.20;15.23;;;3.70;99.90;;;;;;4933958;29;20028;-76
2021/03/08 03:44:35;;;;;;;24.67;15.20;;;3.80;99.90;;;;;;4927023;29;20105;-74
2021/03/08 03:47:01;;;;;;;25.10;15.60;;;3.80;99.90;;;;;;4953098;29;20385;-77
2021/03/08 03:49:27;;;;;;;27.77;16.23;;;3.80;99.90;;;;;;4952454;29;20099;-75
2021/03/08 03:51:53;;;;;;;27.55;15.80;;;3.70;99.90;;;;;;4965362;28;20102;-76
2021/03/08 03:54:19;;;;;;;23.85;15.55;;;3.80;99.90;;;;;;4972488;28;20031;-75
2021/03/08 03:56:55;;;;;;;28.40;16.48;;;3.70;99.90;;;;;;4971740;28;20165;-77
2021/03/08 03:59:28;;;;;;;24.83;15.90;;;3.50;99.90;;;;;;4970909;28;20110;-75
2021/03/08 04:01:59;;;;;;;27.25;15.75;;;3.50;99.90;;;;;;4970713;28;20031;-74
2021/03/08 04:04:27;;;;;;;26.15;16.27;;;3.50;99.90;;;;;;4972461;28;20030;-76
2021/03/08 04:06:54;;;;;;;27.52;16.38;;;3.40;99.90;;;;;;4971588;28;20031;-76
2021/03/08 04:09:22;;;;;;;27.95;17.80;;;3.50;99.90;;;;;;4956343;28;20035;-74
2021/03/08 04:11:52;;;;;;;27.63;17.55;;;3.50;99.90;;;;;;4969149;28;20114;-77
2021/03/08 04:14:21;;;;;;;33.63;18.15;;;3.40;99.90;;;;;;4973605;28;20054;-78
2021/03/08 04:16:49;;;;;;;30.77;18.23;;;3.40;99.90;;;;;;4975813;28;20044;-77
2021/03/08 04:19:18;;;;;;;34.15;18.58;;;3.40;99.90;;;;;;4974034;28;20422;-77
2021/03/08 04:21:46;;;;;;;29.63;17.55;;;3.40;99.90;;;;;;4958199;28;20544;-76
2021/03/08 04:24:14;;;;;;;33.75;18.38;;;3.50;99.90;;;;;;4961880;28;20077;-77
2021/03/08 04:26:40;;;;;;;32.40;18.42;;;3.40;99.90;;;;;;4953669;29;20032;-75
2021/03/08 04:29:07;;;;;;;31.10;19.73;;;3.40;99.90;;;;;;4969600;28;20022;-74
2021/03/08 04:31:34;;;;;;;29.95;18.05;;;2.90;99.90;;;;;;4960136;28;20059;-76
2021/03/08 04:34:01;;;;;;;33.78;18.48;;;3.10;99.90;;;;;;4956883;29;20058;-79
2021/03/08 04:36:29;;;;;;;32.25;19.77;;;3.20;99.90;;;;;;4955712;29;20042;-77
2021/03/08 04:38:55;;;;;;;29.77;17.30;;;3.30;99.90;;;;;;4963804;28;20030;-75
2021/03/08 04:41:25;;;;;;;30.73;18.15;;;3.50;99.90;;;;;;4956074;29;20106;-76
2021/03/08 04:43:51;;;;;;;31.25;19.00;;;3.60;99.90;;;;;;4956534;29;20509;-77
2021/03/08 04:46:17;;;;;;;26.27;18.20;;;3.60;99.90;;;;;;4955011;29;20075;-77
2021/03/08 04:48:43;;;;;;;29.30;18.35;;;3.70;99.90;;;;;;4955880;29;20059;-75
2021/03/08 04:51:11;;;;;;;30.95;18.85;;;3.50;99.90;;;;;;4952929;28;20438;-76
2021/03/08 04:53:37;;;;;;;30.35;18.13;;;3.60;99.90;;;;;;4965200;28;20031;-77
2021/03/08 04:56:03;;;;;;;30.38;17.45;;;3.70;99.90;;;;;;4975507;28;20484;-77
2021/03/08 04:58:33;;;;;;;33.03;17.48;;;3.80;99.90;;;;;;4957419;28;20043;-77
2021/03/08 05:00:59;;;;;;;36.07;17.83;;;3.80;99.90;;;;;;4973152;28;20038;-78
2021/03/08 05:03:26;;;;;;;27.20;17.67;;;3.70;99.90;;;;;;4973977;28;20331;-77
2021/03/08 05:05:55;;;;;;;34.28;19.20;;;3.50;99.90;;;;;;4974913;28;20042;-77
2021/03/08 05:08:23;;;;;;;29.15;18.45;;;3.70;99.90;;;;;;4966414;28;20101;-76
2021/03/08 05:10:51;;;;;;;32.38;18.15;;;3.70;99.90;;;;;;4954602;28;20035;-80
2021/03/08 05:13:19;;;;;;;32.75;19.25;;;3.80;99.90;;;;;;4953376;29;20057;-77
2021/03/08 05:15:45;;;;;;;32.85;18.45;;;3.90;99.90;;;;;;4955571;29;20034;-76
2021/03/08 05:18:12;;;;;;;31.83;19.17;;;3.90;99.90;;;;;;4955408;29;20054;-76
2021/03/08 05:20:39;;;;;;;35.75;18.77;;;3.50;99.90;;;;;;4953991;28;20385;-77
2021/03/08 05:23:05;;;;;;;38.40;19.05;;;3.70;99.90;;;;;;4959569;28;20031;-78
2021/03/08 05:25:33;;;;;;;28.45;16.35;;;3.70;99.90;;;;;;4972383;28;20065;-77
2021/03/08 05:28:00;;;;;;;31.88;20.08;;;3.50;99.90;;;;;;4970800;28;20165;-74
2021/03/08 05:30:27;;;;;;;28.73;17.25;;;3.80;99.90;;;;;;4954528;28;20030;-77
2021/03/08 05:32:58;;;;;;;31.08;18.50;;;3.90;99.90;;;;;;4955134;29;20027;-75
2021/03/08 05:35:26;;;;;;;32.67;17.60;;;4.00;99.90;;;;;;4955090;29;20350;-78
2021/03/08 05:37:54;;;;;;;30.58;18.88;;;4.00;99.90;;;;;;4956060;28;20118;-76
2021/03/08 05:40:53;;;;;;;30.48;17.42;;;4.20;99.90;;;;;;4973288;28;20034;-78
2021/03/08 05:43:20;;;;;;;32.25;18.17;;;4.30;99.90;;;;;;4921733;29;20066;-77
2021/03/08 05:46:16;;;;;;;33.28;19.15;;;4.30;99.90;;;;;;4955251;29;20042;-77
2021/03/08 05:49:15;;;;;;;35.17;19.55;;;4.30;99.90;;;;;;4931287;29;20048;-77
2021/03/08 05:52:18;;;;;;;30.40;18.73;;;4.40;99.90;;;;;;4953937;28;20030;-78
2021/03/08 05:55:15;;;;;;;32.97;18.52;;;4.50;99.90;;;;;;4973342;28;20027;-78
2021/03/08 05:58:07;;;;;;;29.88;18.42;;;4.60;99.90;;;;;;4956184;28;20034;-75
2021/03/08 06:01:00;;;;;;;34.20;18.77;;;4.60;99.90;;;;;;4941038;29;20034;-77
2021/03/08 06:03:37;;;;;;;29.10;18.88;;;4.30;99.90;;;;;;4952997;29;20090;-75
2021/03/08 06:06:39;;;;;;;34.72;20.17;;;4.40;99.90;;;;;;4954636;29;20066;-80
2021/03/08 06:09:21;;;;;;;35.80;19.92;;;4.40;99.90;;;;;;4965659;28;20027;-78
2021/03/08 06:11:57;;;;;;;37.53;22.25;;;4.10;99.90;;;;;;4957344;28;20405;-78
2021/03/08 06:14:32;;;;;;;59.08;29.58;;;4.30;99.90;;;;;;4935524;29;20020;-78
2021/03/08 06:16:58;;;;;;;48.42;27.70;;;4.30;99.90;;;;;;4954482;29;20031;-78
2021/03/08 06:19:25;;;;;;;40.20;23.13;;;4.20;99.90;;;;;;4952899;28;20113;-78
2021/03/08 06:21:53;;;;;;;38.17;22.40;;;4.30;99.90;;;;;;4954117;29;20024;-77
2021/03/08 06:24:20;;;;;;;43.00;22.80;;;4.40;99.90;;;;;;4967558;28;20035;-77
2021/03/08 06:26:47;;;;;;;41.50;22.92;;;4.60;99.90;;;;;;4973861;28;20023;-81
2021/03/08 06:29:13;;;;;;;41.08;22.85;;;4.70;99.90;;;;;;4973353;28;20034;-75
2021/03/08 06:31:42;;;;;;;39.90;21.40;;;4.70;99.90;;;;;;4973433;28;20023;-75
2021/03/08 06:34:08;;;;;;;43.35;22.10;;;4.80;99.90;;;;;;4972720;28;20039;-76
2021/03/08 06:36:36;;;;;;;39.35;22.13;;;4.90;99.90;;;;;;4973539;28;20031;-78
2021/03/08 06:39:02;;;;;;;32.92;21.15;;;4.90;99.90;;;;;;4972930;28;20073;-74
2021/03/08 06:41:27;;;;;;;37.72;22.52;;;5.00;99.90;;;;;;4973561;28;20035;-78
2021/03/08 06:43:53;;;;;;;37.20;21.88;;;4.90;99.90;;;;;;4972895;28;20531;-79
2021/03/08 06:46:19;;;;;;;41.97;21.58;;;5.10;99.90;;;;;;4970733;28;20038;-78
2021/03/08 06:48:45;;;;;;;33.33;21.80;;;5.30;99.90;;;;;;4972941;28;20043;-78
2021/03/08 06:51:19;;;;;;;35.75;23.15;;;5.10;99.90;;;;;;4973197;28;20022;-76
2021/03/08 06:53:46;;;;;;;33.60;20.30;;;5.30;99.90;;;;;;4972796;28;20027;-75
2021/03/08 06:56:19;;;;;;;35.05;20.98;;;5.40;99.90;;;;;;4973353;28;20396;-81
2021/03/08 06:59:01;;;;;;;35.30;20.05;;;5.30;99.90;;;;;;4958166;28;21422;-74
2021/03/08 07:01:29;;;;;;;60.20;34.85;;;5.40;99.90;;;;;;4954201;28;20135;-79
2021/03/08 07:03:57;;;;;;;82.53;42.92;;;6.80;99.90;;;;;;4967535;28;20054;-79
2021/03/08 07:06:23;;;;;;;38.80;24.63;;;6.20;99.40;;;;;;4971769;28;20098;-75
2021/03/08 07:08:49;;;;;;;31.05;19.17;;;5.90;99.90;;;;;;4971613;28;20035;-77
2021/03/08 07:11:22;;;;;;;30.02;18.52;;;5.40;99.90;;;;;;4973047;28;20070;-80
2021/03/08 07:13:49;;;;;;;32.05;19.50;;;5.00;99.90;;;;;;4971425;28;20507;-76
2021/03/08 07:16:15;;;;;;;31.65;18.85;;;5.10;99.90;;;;;;4972366;28;20039;-79
2021/03/08 07:18:42;;;;;;;29.65;19.38;;;5.40;99.90;;;;;;4954606;28;20030;-77
2021/03/08 07:21:52;;;;;;;31.98;18.58;;;5.50;99.90;;;;;;4972598;28;20027;-77
2021/03/08 07:24:25;;;;;;;34.55;17.60;;;5.10;99.90;;;;;;4920753;28;20101;-79
2021/03/08 07:26:55;;;;;;;26.83;16.98;;;4.90;99.90;;;;;;4971449;28;20093;-79
2021/03/08 07:29:24;;;;;;;31.25;16.98;;;4.40;99.90;;;;;;4965653;28;20027;-78
2021/03/08 07:31:51;;;;;;;24.23;16.40;;;4.40;99.90;;;;;;4972561;28;20172;-80
2021/03/08 07:34:18;;;;;;;30.02;16.20;;;4.60;99.90;;;;;;4971816;28;20019;-76
2021/03/08 07:37:02;;;;;;;28.73;16.52;;;4.90;99.90;;;;;;4971413;28;20035;-78
2021/03/08 07:39:28;;;;;;;31.05;17.48;;;5.40;99.90;;;;;;4971912;28;20396;-79
2021/03/08 07:42:04;;;;;;;35.05;17.40;;;5.70;99.90;;;;;;4972661;28;20037;-78
2021/03/08 07:44:31;;;;;;;34.20;18.00;;;6.30;99.90;;;;;;4971234;28;20432;-76
2021/03/08 07:46:59;;;;;;;34.83;17.30;;;6.50;99.90;;;;;;4967837;28;20038;-79
2021/03/08 07:49:32;;;;;;;26.23;17.15;;;6.70;99.90;;;;;;4960798;28;20078;-77
2021/03/08 07:52:06;;;;;;;34.83;17.33;;;6.70;99.90;;;;;;4963586;28;20507;-79
2021/03/08 07:54:53;;;;;;;34.40;17.13;;;6.50;99.90;;;;;;4953056;29;20035;-80
2021/03/08 07:57:20;;;;;;;32.50;16.88;;;6.80;99.90;;;;;;4959173;28;20046;-76
2021/03/08 07:59:46;;;;;;;30.52;16.25;;;6.90;99.90;;;;;;4943828;28;20076;-79
2021/03/08 08:02:12;;;;;;;32.15;16.63;;;7.20;99.90;;;;;;4972276;28;20384;-77
2021/03/08 08:04:38;;;;;;;28.70;17.40;;;7.50;99.70;;;;;;4971138;28;20543;-77
2021/03/08 08:07:07;;;;;;;29.23;16.85;;;7.50;99.10;;;;;;4969479;28;20361;-76
2021/03/08 08:09:43;;;;;;;25.48;15.48;;;7.50;99.90;;;;;;4964550;28;20032;-75
2021/03/08 08:12:17;;;;;;;24.58;15.43;;;7.70;99.00;;;;;;4968576;28;20034;-78
2021/03/08 08:14:44;;;;;;;25.42;15.13;;;7.70;99.40;;;;;;4953192;28;20389;-77
2021/03/08 08:17:20;;;;;;;25.83;16.25;;;7.80;99.10;;;;;;4971555;28;20039;-79
2021/03/08 08:19:48;;;;;;;27.48;16.48;;;8.00;98.60;;;;;;4959690;28;20106;-77
2021/03/08 08:22:19;;;;;;;34.03;17.77;;;8.20;98.10;;;;;;4961915;28;20027;-77
2021/03/08 08:24:47;;;;;;;33.70;19.42;;;8.30;97.50;;;;;;4959737;28;20035;-77
2021/03/08 08:27:16;;;;;;;35.72;21.25;;;8.40;96.80;;;;;;4953576;28;20511;-80
2021/03/08 08:29:42;;;;;;;36.75;22.17;;;8.40;96.70;;;;;;4958049;28;20027;-80
2021/03/08 08:32:11;;;;;;;43.90;23.90;;;8.60;96.40;;;;;;4970629;28;20499;-80
2021/03/08 08:34:39;;;;;;;43.53;24.15;;;8.70;95.90;;;;;;4971470;28;20030;-79
2021/03/08 08:37:09;;;;;;;40.38;26.08;;;8.90;95.00;;;;;;4971932;28;20046;-78
2021/03/08 08:39:35;;;;;;;44.28;26.40;;;8.70;94.70;;;;;;4954339;28;20042;-78
2021/03/08 08:42:18;;;;;;;43.03;27.02;;;8.60;95.00;;;;;;4971851;28;20019;-79
2021/03/08 08:44:47;;;;;;;44.10;26.23;;;8.50;95.60;;;;;;4951094;29;20548;-75
2021/03/08 08:47:20;;;;;;;44.03;24.45;;;8.60;95.60;;;;;;4969404;28;20027;-78
2021/03/08 08:49:48;;;;;;;37.63;23.52;;;8.50;95.90;;;;;;4954124;28;20035;-79
2021/03/08 08:52:15;;;;;;;46.40;22.88;;;8.40;97.20;;;;;;4955040;28;20039;-78
2021/03/08 08:54:40;;;;;;;38.97;21.55;;;8.30;97.70;;;;;;4962924;28;20416;-76
2021/03/08 08:57:12;;;;;;;36.40;22.08;;;8.30;98.10;;;;;;4954996;28;20491;-77
2021/03/08 08:59:48;;;;;;;35.63;21.38;;;8.50;98.20;;;;;;4966357;28;20069;-77
2021/03/08 09:02:26;;;;;;;32.92;20.58;;;8.70;98.40;;;;;;4975321;28;20555;-76
2021/03/08 09:04:53;;;;;;;33.88;19.85;;;8.60;98.50;;;;;;4956795;28;20040;-76
2021/03/08 09:07:20;;;;;;;26.67;18.95;;;8.70;98.70;;;;;;4975133;28;20027;-77
2021/03/08 09:09:46;;;;;;;35.83;21.92;;;8.70;98.90;;;;;;4964885;28;20064;-78
2021/03/08 09:12:40;;;;;;;37.80;20.73;;;8.80;98.70;;;;;;4954835;28;20118;-77
2021/03/08 09:15:12;;;;;;;30.83;21.10;;;8.80;98.50;;;;;;4957151;28;20114;-77
2021/03/08 09:17:49;;;;;;;34.72;22.42;;;8.80;98.80;;;;;;4974803;28;20070;-78
2021/03/08 09:20:14;;;;;;;26.02;17.67;;;8.80;99.20;;;;;;4974226;28;20034;-79
2021/03/08 09:22:44;;;;;;;30.20;19.95;;;8.60;99.90;;;;;;4974996;28;20082;-76
2021/03/08 09:25:10;;;;;;;26.80;17.05;;;8.70;99.90;;;;;;4961095;28;20077;-77
2021/03/08 09:27:42;;;;;;;24.30;14.50;;;8.80;99.90;;;;;;4958149;28;20375;-77
2021/03/08 09:30:24;;;;;;;21.17;13.23;;;8.90;99.90;;;;;;4959155;28;20027;-76
2021/03/08 09:33:00;;;;;;;21.13;14.88;;;8.50;99.90;;;;;;4953381;28;20031;-76
2021/03/08 09:35:47;;;;;;;27.65;14.65;;;8.60;99.90;;;;;;4954449;28;20030;-77
2021/03/08 09:38:19;;;;;;;20.40;12.75;;;8.70;99.90;;;;;;4953327;29;20070;-81
2021/03/08 09:40:47;;;;;;;18.40;12.20;;;8.50;99.90;;;;;;4953647;28;20023;-79
2021/03/08 09:43:32;;;;;;;17.40;11.30;;;8.50;99.90;;;;;;4961103;28;20023;-76
2021/03/08 09:46:00;;;;;;;15.88;11.07;;;8.60;99.90;;;;;;4972101;28;20061;-76
2021/03/08 09:48:27;;;;;;;20.48;12.30;;;8.70;99.90;;;;;;4974058;28;20054;-80
2021/03/08 09:50:53;;;;;;;22.35;13.15;;;8.40;99.90;;;;;;4973903;28;20140;-79
2021/03/08 09:53:20;;;;;;;20.40;13.10;;;8.70;99.90;;;;;;4973939;28;20027;-79
2021/03/08 09:55:46;;;;;;;22.17;14.10;;;9.70;99.90;;;;;;4973264;28;20059;-81
2021/03/08 09:58:17;;;;;;;20.80;13.25;;;10.40;99.90;;;;;;4973835;28;20049;-76
2021/03/08 10:00:44;;;;;;;18.88;13.48;;;9.90;99.40;;;;;;4967057;28;20020;-77
2021/03/08 10:03:11;;;;;;;19.88;12.60;;;9.40;99.90;;;;;;4964848;28;20043;-76
2021/03/08 10:05:50;;;;;;;20.73;13.00;;;9.20;99.90;;;;;;4961946;28;20428;-76
2021/03/08 10:08:18;;;;;;;22.27;13.55;;;8.80;99.90;;;;;;4961403;28;20473;-75
2021/03/08 10:10:52;;;;;;;21.90;13.30;;;8.50;99.90;;;;;;4953791;29;20039;-77
2021/03/08 10:13:19;;;;;;;18.50;12.68;;;8.60;99.90;;;;;;4961435;28;20027;-77
2021/03/08 10:15:55;;;;;;;19.08;12.65;;;8.50;99.90;;;;;;4961739;28;20031;-77
2021/03/08 10:18:26;;;;;;;22.30;12.57;;;8.40;99.90;;;;;;4953139;28;20117;-75
2021/03/08 10:21:01;;;;;;;24.00;13.68;;;8.40;99.90;;;;;;4954056;29;20023;-76
2021/03/08 10:23:28;;;;;;;19.95;13.05;;;8.50;99.90;;;;;;4954279;29;20059;-77
2021/03/08 10:26:08;;;;;;;25.55;13.98;;;8.50;99.90;;;;;;4953946;28;20031;-76
2021/03/08 10:28:41;;;;;;;19.83;12.32;;;8.70;99.90;;;;;;4964333;28;20033;-76
2021/03/08 10:31:25;;;;;;;22.60;13.38;;;8.60;99.90;;;;;;4955896;28;20026;-76
2021/03/08 10:33:51;;;;;;;23.80;14.50;;;8.60;99.90;;;;;;4967797;28;20031;-76
2021/03/08 10:36:18;;;;;;;19.17;14.10;;;8.70;99.90;;;;;;4972930;28;20027;-75
2021/03/08 10:38:51;;;;;;;22.95;13.95;;;8.80;99.90;;;;;;4973211;28;20161;-75
2021/03/08 10:41:20;;;;;;;23.02;14.20;;;9.10;99.90;;;;;;4968878;28;20023;-77
2021/03/08 10:43:46;;;;;;;23.67;14.43;;;9.20;99.90;;;;;;4948807;28;20047;-76
2021/03/08 10:46:12;;;;;;;21.63;13.68;;;8.90;99.90;;;;;;4972480;28;20022;-75
2021/03/08 10:48:57;;;;;;;20.77;13.65;;;9.00;99.90;;;;;;4973213;28;20019;-75
2021/03/08 10:51:23;;;;;;;25.58;13.73;;;8.60;99.90;;;;;;4952990;29;20031;-75
2021/03/08 10:54:03;;;;;;;23.63;13.43;;;8.60;99.90;;;;;;4971196;28;20035;-76
2021/03/08 10:56:30;;;;;;;28.15;15.38;;;8.80;99.90;;;;;;4972098;28;20074;-76
2021/03/08 10:58:58;;;;;;;22.52;14.50;;;8.60;99.90;;;;;;4972928;28;20062;-76
2021/03/08 11:01:25;;;;;;;25.73;14.10;;;8.40;99.90;;;;;;4972358;28;20073;-77
2021/03/08 11:03:51;;;;;;;19.42;14.50;;;8.40;99.90;;;;;;4972850;28;20029;-78
2021/03/08 11:06:19;;;;;;;24.20;14.52;;;8.50;99.90;;;;;;4944367;28;20389;-77
2021/03/08 11:09:05;;;;;;;22.88;14.70;;;8.50;99.90;;;;;;4960252;28;20042;-77
2021/03/08 11:11:34;;;;;;;21.80;14.68;;;8.40;99.90;;;;;;4963277;28;20038;-78
2021/03/08 11:14:02;;;;;;;28.73;15.80;;;8.20;99.90;;;;;;4961488;28;20039;-75
2021/03/08 11:16:28;;;;;;;27.27;15.55;;;8.20;99.90;;;;;;4962583;28;20045;-78
2021/03/08 11:19:12;;;;;;;32.65;18.50;;;7.90;99.90;;;;;;4963043;28;20389;-76
2021/03/08 11:21:38;;;;;;;29.83;17.17;;;8.00;99.90;;;;;;4965129;28;20029;-76
2021/03/08 11:24:21;;;;;;;31.80;18.92;;;8.20;99.90;;;;;;4970484;28;20035;-77
2021/03/08 11:27:06;;;;;;;36.95;18.35;;;8.30;99.90;;;;;;4962765;28;20039;-76
2021/03/08 11:29:32;;;;;;;31.45;18.77;;;8.30;99.90;;;;;;4959111;28;20027;-76
2021/03/08 11:31:57;;;;;;;34.08;16.50;;;9.40;99.90;;;;;;4972245;28;20027;-75
2021/03/08 11:34:42;;;;;;;24.80;16.30;;;9.70;99.90;;;;;;4972587;28;20027;-77
2021/03/08 11:37:16;;;;;;;25.48;16.13;;;9.10;99.90;;;;;;4972144;28;20035;-75
2021/03/08 11:39:44;;;;;;;27.80;16.80;;;9.80;99.90;;;;;;4960964;28;20057;-75
2021/03/08 11:42:11;;;;;;;26.80;16.98;;;9.50;99.00;;;;;;4970759;28;20035;-73
2021/03/08 11:44:37;;;;;;;26.63;16.40;;;9.20;99.30;;;;;;4954942;28;20082;-75
2021/03/08 11:47:04;;;;;;;25.63;15.48;;;8.90;99.60;;;;;;4972083;28;20066;-74
2021/03/08 11:49:30;;;;;;;29.65;17.98;;;8.70;99.90;;;;;;4970665;28;20492;-74
2021/03/08 11:51:56;;;;;;;30.75;17.92;;;8.70;99.90;;;;;;4972546;28;20042;-74
2021/03/08 11:54:21;;;;;;;26.70;16.42;;;8.90;99.90;;;;;;4964329;28;20054;-74
2021/03/08 11:56:48;;;;;;;30.80;16.75;;;8.90;99.90;;;;;;4950040;29;20043;-76
2021/03/08 11:59:13;;;;;;;29.38;16.25;;;8.60;99.90;;;;;;4950530;29;20434;-75
2021/03/08 12:01:39;;;;;;;28.58;17.05;;;8.60;99.90;;;;;;4951334;28;20118;-75
2021/03/08 12:04:05;;;;;;;28.42;18.50;;;8.40;99.90;;;;;;4955406;28;20033;-75
2021/03/08 12:06:31;;;;;;;32.55;19.35;;;8.20;99.90;;;;;;4963966;28;20397;-75
2021/03/08 12:08:57;;;;;;;31.38;17.30;;;8.20;99.90;;;;;;4948993;28;20045;-74
2021/03/08 12:11:23;;;;;;;26.30;17.27;;;8.10;99.90;;;;;;4953127;28;20031;-74
2021/03/08 12:13:49;;;;;;;30.98;18.15;;;8.00;99.90;;;;;;4967307;28;20050;-74
2021/03/08 12:16:14;;;;;;;30.17;17.67;;;7.90;99.90;;;;;;4940425;28;20043;-74
2021/03/08 12:18:40;;;;;;;25.92;17.58;;;8.10;99.90;;;;;;4952984;28;20019;-74
2021/03/08 12:21:06;;;;;;;32.47;17.55;;;8.30;99.90;;;;;;4952615;28;20027;-75
2021/03/08 12:23:32;;;;;;;30.67;16.92;;;8.30;99.90;;;;;;4959887;28;20027;-77
2021/03/08 12:25:58;;;;;;;34.80;17.65;;;8.40;99.90;;;;;;4972274;28;20058;-75
2021/03/08 12:28:24;;;;;;;27.17;17.55;;;8.50;99.90;;;;;;4954247;28;20035;-75
2021/03/08 12:30:49;;;;;;;34.63;18.55;;;8.70;99.90;;;;;;4954854;28;20031;-73
2021/03/08 12:33:15;;;;;;;33.65;18.70;;;8.70;99.90;;;;;;4938619;29;20031;-74
2021/03/08 12:35:41;;;;;;;31.92;18.88;;;8.70;99.90;;;;;;4954940;29;20028;-73
2021/03/08 12:38:30;;;;;;;26.52;16.58;;;8.90;99.90;;;;;;4956048;29;20179;-77
2021/03/08 12:40:56;;;;;;;32.03;18.25;;;8.80;99.90;;;;;;4948270;28;20034;-76
2021/03/08 12:43:23;;;;;;;30.40;17.77;;;9.10;99.90;;;;;;4957505;28;20045;-75
2021/03/08 12:45:50;;;;;;;27.40;17.65;;;9.60;99.60;;;;;;4975318;28;20042;-76
2021/03/08 12:48:16;;;;;;;28.83;16.95;;;9.60;99.80;;;;;;4964973;28;20027;-76
2021/03/08 12:50:41;;;;;;;28.60;18.08;;;10.20;97.90;;;;;;4975270;28;20161;-75